Regina International Airport

Jump to: basic info | weather | frequencies | runways | comments

Related pages: nearby airports | nearby navaids | notams | map

Basic information (top)

Codes: YQR CYQR
Location: lon 50.431900, lat -104.666000, elev 1,894 ft / 577 m msl
Status: medium_airport
Scheduled airline service: yes
Links: Wikipedia Mobile

Weather (top)

Current conditions (rec'd 2014/08/22 21:00Z):

CYQR 222100Z 04011G16KT 15SM FEW041 SCT060 BKN290 20/11 A3017 RMK CU1SC2CI4 SLP224 DENSITY ALT 2600FT

Airport forecast (rec'd 2014/08/22 18:42Z):

TAF CYQR 221738Z 2218/2306 04010KT P6SM BKN030 BKN200 
      RMK NXT FCST BY 230000Z

Frequencies (top)

Verify before use: may be inaccurate or out of date.

A/G: 118.6 MHz (MF REGINA RDO)
ARR: 120.1 MHz (ARR)
ATIS: 127 MHz (ATIS)
CNTR: 123.8 MHz (WINNIPEG)
DEP: 120.1 MHz (DEP)
GND: 121.9 MHz (GND)
RCO: 122.5 MHz (EDMONTON RDO)
TWR: 118.6 MHz (TWR)

Runways (top)

08/26: 6,200 x 150 ft (1,890 x 46 m) — paved — lighted

13/31: 7,900 x 150 ft (2,408 x 46 m) — paved — lighted

Latest comments (top)

Rates and fees: Here's the schedule of rates and fees ... [read]

Friendly FBO: During a fuel stop en route from ... [read]

Avoid the Best Western hotel here: I spent a night at the Regina Best ... [read]

More... (top)

See also NOTAMs and nearby airports and navaids, or visit the Regina International Airport page at the main OurAirports website..